Indianapolis, Indiana
Traffic Map
Current Weather Conditions
Indianapolis, Indiana
Overcast
Overcast
27°
Feels Like: 29°
Wind Chill: 27° Ceiling: 7000
Heat Index: 29° Visibility: 10mi
Dew Point: 22° Wind: 16mph
Humidity: 76% Direction: 330° (NNW)
Pressure: 30.02in Gusts: 0mph
Raw Report DataKIND 250531Z 33014KT 10SM FEW022 BKN070 OVC085 27/22 A3002 RMK AO2 WSHFT 0514 T02670222
Traffic Incident Summary
Active as of:
Severity:
Category:
InformationThere was an issue retrieving the traffic information for this location. Please try a different location or try again shortly.
Advertisements
Track Severe Weather on mobile